EGPN - Dundee-Riverside
Distance from station: E 5mi, 14km
Updated: 10/17/2017 3:50am
Few Clouds
Few Clouds
 Wind from W
Wind: W 26 mph , 43 km/h
Temperature: 59°F , 15°C
Dew Point: 52°F , 11°C
Humidity: 77%
Barometer: 29.62 inHg , 1003 hPa
Clouds: Few Clouds
Visibility: 6 miles , 10 km
Cloud details: Few Clouds 2400 ft
2017/10/17 10:50 EGPN 171050Z 26023KT 9999 FEW024 15/11 Q1003